KSNAKIZA

Guest
Details From KSNA - Orange County - John Wayne
To KIZA - SANTA YNEZ
Flight Number -
Tags generated
Created
Modified
Stats Distance 123 nm / 228 km
Max Altitude 12,000 ft / 3,658 m
Waypoints 3
Social Downloads 0
Likes 0
Share VATSIM

Download

Looking for another format? Having issues loading an existing format? Contact us
Advertisement - Login to hide

Notes

Basic altitude profile: - Ascent Rate: 1500ft/min - Ascent Speed: 180kts - Cruise Altitude: 12000ft - Cruise Speed: 200kts - Descent Rate: 1000ft/min - Descent Speed: 160kts

Route

KSNA BAYST KIZA

ID Type Via Altitude Latitude Longitude Leg Dist Tot Dist Heading (true) Name
O KSNA APT - 0 ft / 0 m 33.67611˚ -117.86764˚ - 0 nm - Orange County - John Wayne
BAYST FIX - 12,000 ft / 3,658 m 34.02965˚ -118.66367˚ 45 nm 45 nm 298° / 298° -
O KIZA APT - 0 ft / 0 m 34.60682˚ -120.07555˚ 78 nm 123 nm 297° / 296° SANTA YNEZ

Altitude Profile

Advertisement - Login to hide

KSNA

Details ICAO KSNA (SNA)
Name Orange County - John Wayne
Region United States
Timezone America/Los_Angeles (UTC-8.0)
Stats Elevation 56 ft / 17 m (AMSL)
Location 33.676112° -117.867636°
Runways 2
Magnetic Variation 11.845° E

METAR

KSNA 162353Z 20005KT 10SM FEW036 FEW090 SCT120 17/10 A2970 RMK AO2 SLP058 FU SCT120 T01720100 10200 20172 53012

Decode

TAF

KSNA 162322Z 1700/1724 19008KT P6SM FEW035 FM170100 VRB05KT P6SM FEW035 FM170600 VRB05KT P6SM SKC WS010/05025KT FM171400 05015G25KT P6SM SKC FM172000 06010G18KT P6SM SKC

Decode

Departure Runways

ID Width Length Bearing (true) Bearing (mag) Surface Threshold Offset Overrun Length
01L 151 ft / 46 m 5,711 ft / 1,741 m 27.81° 15.97° Asphalt 0 ft / 0 m 1,050 ft / 320 m
01R 75 ft / 23 m 2,892 ft / 881 m 27.80° 15.96° Asphalt 0 ft / 0 m 400 ft / 122 m
19L 75 ft / 23 m 2,892 ft / 881 m 207.80° 195.96° Asphalt 0 ft / 0 m 151 ft / 46 m
19R 151 ft / 46 m 5,711 ft / 1,741 m 207.81° 195.97° Asphalt 0 ft / 0 m 194 ft / 59 m

KIZA

Details ICAO KIZA
Name SANTA YNEZ
Region United States
Timezone America/Los_Angeles (UTC-8.0)
Stats Elevation 671 ft / 205 m (AMSL)
Location 34.606817° -120.075550°
Runways 1
Magnetic Variation 12.449° E

METAR

KIZA 170035Z AUTO 36005KT 10SM CLR 17/M02 A2974 RMK AO2 LTG DSNT SE

Decode

TAF

Not found

Destination Runways

ID Width Length Bearing (true) Bearing (mag) Surface Threshold Offset Overrun Length
08 75 ft / 23 m 2,798 ft / 853 m 98.28° 85.83° Asphalt 0 ft / 0 m 0 ft / 0 m
26 75 ft / 23 m 2,798 ft / 853 m 278.29° 265.84° Asphalt 0 ft / 0 m 0 ft / 0 m